createdAt,value
2019-06-10T00:00:42.067Z,2.27
2019-06-10T00:03:11.709Z,2.05
2019-06-10T00:05:42.967Z,2.10
2019-06-10T00:08:12.203Z,2.12
2019-06-10T00:10:42.500Z,1.90
2019-06-10T00:13:11.904Z,2.90
2019-06-10T00:15:41.063Z,1.95
2019-06-10T00:18:30.855Z,2.05
2019-06-10T00:20:41.019Z,2.02
2019-06-10T00:23:12.327Z,2.35
2019-06-10T00:25:41.502Z,1.95
2019-06-10T00:28:12.003Z,2.08
2019-06-10T00:30:41.249Z,2.50
2019-06-10T00:33:12.654Z,1.98
2019-06-10T00:35:41.599Z,2.15
2019-06-10T00:38:13.842Z,1.80
2019-06-10T00:40:41.668Z,2.20
2019-06-10T00:43:13.041Z,2.17
2019-06-10T00:45:41.174Z,1.87
2019-06-10T00:48:21.374Z,1.90
2019-06-10T00:50:41.545Z,1.82
2019-06-10T00:53:14.174Z,2.00
2019-06-10T00:55:41.531Z,2.10
2019-06-10T00:58:13.952Z,1.77
2019-06-10T01:00:41.867Z,2.20
2019-06-10T01:03:13.473Z,1.90
2019-06-10T01:05:42.101Z,1.90
2019-06-10T01:08:13.982Z,1.92
2019-06-10T01:10:43.982Z,2.27
2019-06-10T01:13:13.175Z,2.02
2019-06-10T01:15:42.031Z,2.15
2019-06-10T01:18:28.776Z,1.92
2019-06-10T01:20:41.481Z,2.00
2019-06-10T01:23:13.768Z,2.10
2019-06-10T01:25:42.305Z,2.42
2019-06-10T01:28:13.310Z,2.02
2019-06-10T01:30:41.429Z,2.02
2019-06-10T01:33:12.359Z,1.80
2019-06-10T01:35:41.405Z,2.17
2019-06-10T01:38:12.821Z,2.20
2019-06-10T01:40:42.231Z,2.72
2019-06-10T01:43:13.966Z,2.15
2019-06-10T01:45:41.959Z,2.20
2019-06-10T01:48:12.151Z,2.10
2019-06-10T01:50:41.166Z,2.20
2019-06-10T01:53:12.665Z,2.40
2019-06-10T01:55:41.846Z,2.70
2019-06-10T01:58:14.175Z,2.85
2019-06-10T02:00:45.313Z,2.83
2019-06-10T02:03:16.592Z,2.42
2019-06-10T02:05:44.621Z,2.80
2019-06-10T02:08:14.622Z,2.75
2019-06-10T02:10:43.196Z,2.70
2019-06-10T02:13:14.819Z,2.35
2019-06-10T02:15:43.429Z,2.60
2019-06-10T02:18:13.592Z,2.50
2019-06-10T02:20:42.007Z,2.90
2019-06-10T02:23:12.252Z,2.50
2019-06-10T02:25:41.256Z,2.42
2019-06-10T02:28:13.100Z,2.83
2019-06-10T02:30:50.341Z,2.62
2019-06-10T02:33:12.696Z,3.02
2019-06-10T02:35:48.590Z,2.80
2019-06-10T02:38:16.856Z,2.90
2019-06-10T02:40:43.273Z,3.40
2019-06-10T02:43:17.453Z,2.80
2019-06-10T02:45:44.448Z,2.70
2019-06-10T02:48:16.103Z,2.17
2019-06-10T02:50:53.865Z,3.35
2019-06-10T02:53:30.136Z,2.95
2019-06-10T02:55:53.975Z,3.42
2019-06-10T02:58:30.417Z,2.80
2019-06-10T03:00:54.638Z,3.17
2019-06-10T03:03:36.023Z,3.20
2019-06-10T03:05:54.038Z,3.15
2019-06-10T03:08:28.721Z,3.22
2019-06-10T03:10:54.700Z,3.12
2019-06-10T03:13:25.504Z,3.12
2019-06-10T03:16:02.821Z,2.83
2019-06-10T03:18:32.884Z,3.25
2019-06-10T03:21:02.558Z,2.72
2019-06-10T03:23:32.135Z,2.80
2019-06-10T03:26:04.273Z,3.37
2019-06-10T03:28:33.020Z,3.47
2019-06-10T03:31:05.867Z,3.55
2019-06-10T03:33:40.767Z,3.47
2019-06-10T03:36:03.251Z,3.12
2019-06-10T03:38:32.605Z,3.30
2019-06-10T03:41:03.215Z,3.35
2019-06-10T03:43:32.901Z,3.15
2019-06-10T03:46:03.012Z,3.62
2019-06-10T03:48:32.914Z,3.55
2019-06-10T03:51:03.357Z,3.40
2019-06-10T03:53:33.738Z,3.02
2019-06-10T03:56:02.556Z,3.50
2019-06-10T03:58:32.666Z,3.40
2019-06-10T04:01:03.080Z,3.40
2019-06-10T04:03:33.817Z,3.90
2019-06-10T04:06:02.486Z,3.33
2019-06-10T04:08:32.862Z,3.75
2019-06-10T04:11:02.858Z,3.98
2019-06-10T04:13:33.840Z,3.60
2019-06-10T04:16:02.807Z,3.42
2019-06-10T04:18:32.798Z,3.83
2019-06-10T04:21:02.383Z,3.60
2019-06-10T04:23:33.217Z,3.37
2019-06-10T04:26:02.275Z,3.77
2019-06-10T04:28:33.447Z,4.20
2019-06-10T04:31:02.587Z,4.42
2019-06-10T04:33:32.960Z,3.65
2019-06-10T04:36:02.969Z,3.70
2019-06-10T04:38:32.793Z,3.80
2019-06-10T04:41:03.332Z,3.62
2019-06-10T04:43:32.541Z,4.08
2019-06-10T04:46:02.345Z,3.95
2019-06-10T04:48:32.746Z,3.47
2019-06-10T04:51:02.727Z,3.17
2019-06-10T04:53:32.896Z,3.30
2019-06-10T04:56:03.062Z,3.27
2019-06-10T04:58:33.404Z,3.50
2019-06-10T05:01:03.035Z,3.20
2019-06-10T05:03:32.973Z,3.20
2019-06-10T05:06:03.378Z,3.77
2019-06-10T05:08:33.695Z,3.02
2019-06-10T05:11:03.604Z,3.12
2019-06-10T05:13:33.643Z,3.22
2019-06-10T05:16:03.697Z,2.70
2019-06-10T05:18:33.316Z,3.30
2019-06-10T05:21:04.436Z,3.30
2019-06-10T05:23:33.264Z,3.37
2019-06-10T05:26:02.694Z,3.30
2019-06-10T05:28:34.251Z,3.22
2019-06-10T05:31:02.864Z,3.27
2019-06-10T05:33:33.450Z,3.08
2019-06-10T05:36:02.475Z,2.87
2019-06-10T05:38:34.939Z,3.33
2019-06-10T05:41:02.855Z,3.90
2019-06-10T05:43:34.344Z,3.30
2019-06-10T05:46:03.182Z,3.05
2019-06-10T05:48:33.596Z,3.30
2019-06-10T05:51:05.766Z,3.20
2019-06-10T05:53:34.940Z,3.10
2019-06-10T05:56:02.391Z,2.87
2019-06-10T05:58:34.043Z,3.72
2019-06-10T06:01:02.821Z,3.05
2019-06-10T06:03:35.283Z,3.20
2019-06-10T06:06:03.200Z,2.87
2019-06-10T06:08:34.017Z,3.45
2019-06-10T06:11:03.249Z,3.30
2019-06-10T06:13:34.113Z,3.80
2019-06-10T06:16:03.331Z,3.25
2019-06-10T06:18:34.371Z,3.25
2019-06-10T06:21:19.365Z,3.67
2019-06-10T06:23:33.876Z,3.50
2019-06-10T06:26:03.976Z,3.20
2019-06-10T06:28:34.614Z,3.37
2019-06-10T06:31:03.417Z,3.42
2019-06-10T06:33:34.511Z,3.27
2019-06-10T06:36:03.783Z,3.30
2019-06-10T06:38:35.157Z,3.00
2019-06-10T06:41:03.159Z,3.35
2019-06-10T06:43:37.224Z,3.27
2019-06-10T06:46:02.831Z,3.40
2019-06-10T06:48:35.693Z,3.33
2019-06-10T06:51:08.187Z,2.92
2019-06-10T06:53:42.239Z,3.77
2019-06-10T06:56:03.690Z,3.02
2019-06-10T06:58:34.938Z,3.10
2019-06-10T07:01:10.181Z,3.35
2019-06-10T07:03:36.316Z,3.40
2019-06-10T07:06:03.358Z,3.00
2019-06-10T07:08:36.183Z,3.30
2019-06-10T07:11:03.986Z,3.22
2019-06-10T07:13:35.902Z,3.00
2019-06-10T07:16:04.047Z,3.10
2019-06-10T07:18:35.269Z,3.40
2019-06-10T07:21:02.873Z,3.17
2019-06-10T07:23:35.446Z,3.02
2019-06-10T07:26:02.431Z,3.58
2019-06-10T07:28:33.992Z,3.40
2019-06-10T07:31:03.323Z,3.27
2019-06-10T07:33:34.800Z,3.50
2019-06-10T07:36:03.209Z,3.12
2019-06-10T07:38:33.986Z,3.52
2019-06-10T07:41:02.902Z,3.77
2019-06-10T07:43:32.835Z,3.17
2019-06-10T07:46:03.339Z,3.10
2019-06-10T07:48:34.486Z,3.08
2019-06-10T07:51:03.048Z,3.20
2019-06-10T07:53:33.113Z,3.40
2019-06-10T07:56:03.166Z,3.20
2019-06-10T07:58:33.333Z,3.30
2019-06-10T08:01:02.827Z,3.47
2019-06-10T08:03:34.364Z,3.70
2019-06-10T08:06:03.282Z,3.45
2019-06-10T08:08:32.977Z,3.77
2019-06-10T08:11:03.391Z,3.47
2019-06-10T08:13:32.251Z,3.35
2019-06-10T08:16:02.821Z,4.33
2019-06-10T08:18:38.225Z,9.18
2019-06-10T08:21:03.155Z,4.83
2019-06-10T08:23:32.788Z,4.33
2019-06-10T08:26:03.484Z,3.65
2019-06-10T08:28:33.347Z,4.12
2019-06-10T08:31:03.733Z,4.25
2019-06-10T08:33:33.215Z,3.95
2019-06-10T08:36:04.079Z,3.85
2019-06-10T08:38:33.277Z,3.80
2019-06-10T08:41:03.169Z,3.87
2019-06-10T08:43:33.175Z,3.98
2019-06-10T08:46:02.782Z,4.20
2019-06-10T08:48:32.898Z,3.87
2019-06-10T08:51:03.908Z,4.55
2019-06-10T08:53:32.962Z,3.87
2019-06-10T08:56:02.950Z,3.98
2019-06-10T08:58:33.076Z,3.75
2019-06-10T09:01:02.309Z,3.87
2019-06-10T09:03:32.518Z,4.20
2019-06-10T09:06:02.782Z,4.37
2019-06-10T09:08:32.652Z,4.25
2019-06-10T09:11:02.353Z,4.28
2019-06-10T09:13:33.530Z,4.15
2019-06-10T09:16:14.780Z,3.92
2019-06-10T09:18:33.732Z,4.20
2019-06-10T09:21:02.419Z,4.45
2019-06-10T09:23:33.029Z,3.83
2019-06-10T09:26:03.437Z,4.47
2019-06-10T09:28:32.842Z,4.10
2019-06-10T09:31:04.252Z,4.53
2019-06-10T09:33:33.104Z,4.92
2019-06-10T09:36:03.305Z,4.72
2019-06-10T09:38:33.439Z,4.97
2019-06-10T09:41:05.891Z,5.15
2019-06-10T09:43:33.216Z,4.58
2019-06-10T09:46:03.608Z,4.72
2019-06-10T09:48:33.528Z,4.97
2019-06-10T09:51:02.855Z,4.62
2019-06-10T09:53:41.490Z,4.03
2019-06-10T09:56:04.114Z,5.15
2019-06-10T09:58:32.921Z,5.15
2019-06-10T10:01:03.250Z,4.85
2019-06-10T10:03:32.990Z,4.50
2019-06-10T10:06:11.679Z,5.28
2019-06-10T10:08:33.493Z,5.08
2019-06-10T10:11:01.954Z,6.10
2019-06-10T10:13:35.000Z,5.70
2019-06-10T10:16:02.618Z,4.95
2019-06-10T10:18:33.446Z,5.40
2019-06-10T10:21:03.809Z,5.33
2019-06-10T10:23:49.594Z,5.05
2019-06-10T10:26:03.388Z,5.05
2019-06-10T10:28:33.482Z,5.37
2019-06-10T10:31:04.374Z,4.90
2019-06-10T10:33:33.333Z,5.42
2019-06-10T10:36:03.046Z,4.90
2019-06-10T10:38:34.437Z,5.05
2019-06-10T10:41:04.536Z,5.17
2019-06-10T10:43:37.182Z,5.65
2019-06-10T10:46:05.669Z,5.37
2019-06-10T10:48:34.273Z,4.97
2019-06-10T10:51:03.780Z,5.15
2019-06-10T10:53:32.901Z,5.97
2019-06-10T10:56:02.390Z,5.20
2019-06-10T10:58:33.069Z,4.95
2019-06-10T11:01:04.066Z,5.15
2019-06-10T11:03:33.705Z,6.70
2019-06-10T11:06:02.746Z,8.03
2019-06-10T11:08:33.277Z,5.95
2019-06-10T11:11:05.169Z,6.78
2019-06-10T11:13:35.929Z,5.80
2019-06-10T11:16:04.790Z,5.70
2019-06-10T11:18:33.990Z,5.03
2019-06-10T11:21:05.119Z,5.80
2019-06-10T11:23:34.551Z,5.42
2019-06-10T11:26:03.253Z,5.50
2019-06-10T11:28:32.220Z,5.83
2019-06-10T11:31:03.321Z,5.62
2019-06-10T11:33:33.054Z,5.90
2019-06-10T11:36:02.839Z,6.17
2019-06-10T11:38:32.802Z,5.42
2019-06-10T11:41:02.029Z,5.33
2019-06-10T11:43:32.834Z,5.80
2019-06-10T11:46:06.879Z,5.80
2019-06-10T11:48:32.854Z,6.08
2019-06-10T11:51:04.135Z,5.75
2019-06-10T11:53:34.156Z,5.72
2019-06-10T11:56:02.511Z,5.70
2019-06-10T11:58:33.260Z,5.78
2019-06-10T12:01:03.800Z,6.03
2019-06-10T12:03:32.628Z,6.33
2019-06-10T12:06:05.255Z,6.47
2019-06-10T12:08:32.855Z,5.95
2019-06-10T12:11:02.479Z,5.92
2019-06-10T12:13:34.306Z,5.60
2019-06-10T12:18:33.307Z,7.60
2019-06-10T12:21:03.743Z,7.67
2019-06-10T12:23:33.582Z,6.30
2019-06-10T12:26:04.763Z,7.37
2019-06-10T12:28:33.532Z,7.15
2019-06-10T12:31:06.596Z,6.30
2019-06-10T12:33:33.660Z,6.40
2019-06-10T12:36:06.682Z,6.30
2019-06-10T12:38:33.650Z,6.42
2019-06-10T12:41:08.059Z,6.80
2019-06-10T12:43:32.668Z,6.65
2019-06-10T12:46:02.020Z,6.17
2019-06-10T12:48:34.039Z,6.58
2019-06-10T12:51:07.963Z,6.75
2019-06-10T12:53:32.672Z,6.45
2019-06-10T12:56:08.063Z,7.10
2019-06-10T12:58:33.369Z,6.15
2019-06-10T13:01:05.447Z,6.50
2019-06-10T13:03:33.523Z,6.78
2019-06-10T13:06:07.346Z,6.37
2019-06-10T13:08:35.615Z,6.72
2019-06-10T13:11:04.607Z,6.75
2019-06-10T13:13:33.101Z,6.35
2019-06-10T13:16:06.751Z,6.47
2019-06-10T13:18:31.733Z,7.00
2019-06-10T13:21:04.310Z,6.78
2019-06-10T13:23:32.617Z,6.45
2019-06-10T13:26:04.349Z,6.20
2019-06-10T13:28:32.480Z,6.87
2019-06-10T13:31:04.302Z,6.25
2019-06-10T13:33:33.101Z,6.33
2019-06-10T13:36:04.802Z,6.00
2019-06-10T13:38:33.160Z,6.15
2019-06-10T13:41:02.853Z,6.03
2019-06-10T13:43:33.842Z,6.42
2019-06-10T13:46:04.491Z,6.20
2019-06-10T13:48:33.030Z,5.85
2019-06-10T13:51:06.185Z,6.10
2019-06-10T13:53:32.895Z,6.75
2019-06-10T13:56:18.977Z,5.80
2019-06-10T13:58:31.731Z,6.55
2019-06-10T14:01:02.036Z,6.58
2019-06-10T14:03:32.662Z,6.22
2019-06-10T14:06:11.325Z,6.03
2019-06-10T14:08:32.491Z,6.17
2019-06-10T14:11:06.767Z,5.90
2019-06-10T14:13:32.591Z,5.80
2019-06-10T14:16:01.371Z,5.90
2019-06-10T14:18:32.466Z,6.53
2019-06-10T14:21:03.065Z,6.62
2019-06-10T14:23:32.928Z,6.40
2019-06-10T14:26:03.281Z,7.70
2019-06-10T14:28:40.764Z,10.60
2019-06-10T14:31:05.138Z,6.00
2019-06-10T14:33:32.942Z,6.55
2019-06-10T14:36:05.072Z,6.33
2019-06-10T14:38:32.704Z,5.70
2019-06-10T14:41:03.420Z,5.92
2019-06-10T14:43:33.221Z,5.95
2019-06-10T14:46:02.123Z,6.10
2019-06-10T14:48:33.403Z,6.10
2019-06-10T14:51:03.077Z,6.33
2019-06-10T14:53:33.483Z,6.22
2019-06-10T14:56:03.714Z,6.03
2019-06-10T14:58:31.273Z,5.72
2019-06-10T15:00:59.730Z,5.65
2019-06-10T15:03:28.414Z,5.87
2019-06-10T15:05:56.865Z,6.10
2019-06-10T15:08:25.559Z,6.00
2019-06-10T15:10:54.021Z,6.10
2019-06-10T15:13:23.560Z,5.83
2019-06-10T15:15:53.203Z,5.97
2019-06-10T15:18:23.691Z,5.70
2019-06-10T15:20:53.397Z,6.28
2019-06-10T15:23:23.470Z,6.40
2019-06-10T15:25:56.609Z,6.08
2019-06-10T15:28:23.582Z,5.85
2019-06-10T15:30:52.756Z,6.10
2019-06-10T15:33:23.712Z,5.78
2019-06-10T15:35:53.257Z,6.80
2019-06-10T15:38:23.266Z,6.65
2019-06-10T15:40:53.129Z,6.00
2019-06-10T15:43:23.404Z,5.97
2019-06-10T15:45:52.799Z,6.80
2019-06-10T15:48:25.120Z,6.25
2019-06-10T15:50:51.863Z,5.67
2019-06-10T15:53:24.949Z,6.17
2019-06-10T15:56:12.229Z,6.00
2019-06-10T15:58:21.789Z,11.03
2019-06-10T16:00:53.401Z,13.50
2019-06-10T16:03:25.185Z,7.15
2019-06-10T16:05:52.781Z,6.58
2019-06-10T16:08:22.574Z,7.10
2019-06-10T16:10:52.476Z,6.60
2019-06-10T16:13:25.215Z,6.80
2019-06-10T16:15:53.171Z,6.15
2019-06-10T16:18:26.046Z,6.20
2019-06-10T16:20:52.914Z,6.03
2019-06-10T16:23:24.310Z,6.30
2019-06-10T16:25:53.412Z,5.83
2019-06-10T16:28:23.407Z,6.17
2019-06-10T16:30:53.726Z,6.87
2019-06-10T16:33:26.100Z,6.00
2019-06-10T16:35:53.017Z,6.05
2019-06-10T16:38:23.701Z,6.30
2019-06-10T16:40:53.722Z,6.15
2019-06-10T16:43:24.151Z,6.33
2019-06-10T16:45:52.616Z,6.50
2019-06-10T16:48:21.569Z,6.10
2019-06-10T16:50:54.006Z,6.15
2019-06-10T16:53:24.154Z,6.30
2019-06-10T16:55:52.747Z,6.03
2019-06-10T16:58:23.658Z,5.95
2019-06-10T17:00:51.564Z,6.65
2019-06-10T17:03:22.978Z,6.60
2019-06-10T17:05:53.082Z,6.00
2019-06-10T17:08:24.946Z,5.80
2019-06-10T17:10:52.691Z,6.17
2019-06-10T17:13:25.247Z,6.70
2019-06-10T17:15:54.039Z,6.28
2019-06-10T17:18:23.612Z,6.40
2019-06-10T17:20:53.467Z,6.30
2019-06-10T17:23:27.087Z,6.22
2019-06-10T17:25:56.632Z,6.17
2019-06-10T17:28:28.932Z,6.20
2019-06-10T17:30:57.090Z,6.22
2019-06-10T17:33:27.622Z,6.85
2019-06-10T17:35:55.936Z,6.40
2019-06-10T17:38:24.773Z,6.47
2019-06-10T17:40:53.241Z,6.30
2019-06-10T17:43:23.129Z,6.20
2019-06-10T17:45:52.794Z,6.65
2019-06-10T17:48:23.665Z,6.50
2019-06-10T17:50:52.620Z,6.62
2019-06-10T17:53:22.312Z,6.42
2019-06-10T17:55:51.476Z,6.70
2019-06-10T17:58:37.649Z,6.95
2019-06-10T18:00:52.879Z,6.97
2019-06-10T18:03:23.221Z,13.62
2019-06-10T18:05:53.130Z,11.53
2019-06-10T18:08:22.959Z,7.05
2019-06-10T18:10:53.547Z,6.58
2019-06-10T18:13:22.692Z,6.50
2019-06-10T18:15:53.444Z,6.78
2019-06-10T18:18:22.209Z,7.05
2019-06-10T18:20:53.609Z,6.92
2019-06-10T18:23:23.202Z,6.87
2019-06-10T18:25:52.773Z,7.40
2019-06-10T18:28:22.590Z,7.40
2019-06-10T18:30:53.228Z,7.72
2019-06-10T18:33:22.967Z,7.62
2019-06-10T18:35:53.253Z,6.45
2019-06-10T18:38:22.364Z,7.97
2019-06-10T18:40:53.388Z,7.05
2019-06-10T18:43:22.914Z,7.62
2019-06-10T18:45:53.251Z,7.30
2019-06-10T18:48:23.204Z,7.53
2019-06-10T18:50:53.260Z,7.25
2019-06-10T18:53:23.416Z,7.85
2019-06-10T18:55:54.553Z,7.50
2019-06-10T18:58:22.701Z,9.03
2019-06-10T19:01:00.717Z,7.47
2019-06-10T19:03:23.368Z,7.60
2019-06-10T19:05:52.910Z,7.35
2019-06-10T19:08:22.319Z,7.92
2019-06-10T19:10:53.567Z,11.43
2019-06-10T19:13:22.413Z,22.55
2019-06-10T19:15:53.072Z,29.72
2019-06-10T19:18:23.372Z,22.67
2019-06-10T19:20:53.075Z,11.40
2019-06-10T19:23:22.649Z,9.55
2019-06-10T19:25:52.417Z,8.60
2019-06-10T19:28:22.805Z,8.13
2019-06-10T19:30:53.365Z,7.28
2019-06-10T19:33:23.469Z,7.20
2019-06-10T19:35:53.102Z,8.58
2019-06-10T19:38:23.035Z,9.43
2019-06-10T19:40:52.269Z,7.90
2019-06-10T19:43:20.974Z,8.13
2019-06-10T19:45:49.705Z,8.00
2019-06-10T19:48:18.391Z,8.38
2019-06-10T19:50:50.643Z,8.45
2019-06-10T19:53:18.028Z,8.23
2019-06-10T19:55:46.689Z,8.33
2019-06-10T19:58:15.149Z,8.78
2019-06-10T20:00:50.916Z,9.78
2019-06-10T20:03:13.753Z,8.88
2019-06-10T20:05:44.901Z,8.55
2019-06-10T20:08:12.731Z,9.00
2019-06-10T20:10:42.281Z,8.35
2019-06-10T20:13:11.188Z,10.08
2019-06-10T20:15:39.702Z,10.40
2019-06-10T20:18:08.144Z,8.38
2019-06-10T20:20:38.404Z,8.95
2019-06-10T20:23:08.835Z,7.90
2019-06-10T20:25:38.438Z,8.85
2019-06-10T20:28:07.286Z,10.20
2019-06-10T20:30:36.788Z,9.18
2019-06-10T20:33:05.660Z,9.20
2019-06-10T20:35:34.126Z,10.80
2019-06-10T20:38:04.920Z,9.95
2019-06-10T20:40:35.523Z,10.28
2019-06-10T20:43:03.338Z,10.95
2019-06-10T20:45:33.242Z,10.85
2019-06-10T20:48:02.774Z,9.65
2019-06-10T20:50:32.334Z,9.60
2019-06-10T20:53:11.937Z,9.98
2019-06-10T20:55:40.696Z,10.72
2019-06-10T20:58:06.211Z,11.65
2019-06-10T21:00:34.533Z,11.68
2019-06-10T21:03:03.636Z,9.95
2019-06-10T21:05:33.610Z,11.80
2019-06-10T21:08:04.701Z,9.93
2019-06-10T21:10:35.910Z,11.33
2019-06-10T21:13:05.822Z,10.53
2019-06-10T21:15:35.503Z,11.70
2019-06-10T21:18:04.184Z,10.68
2019-06-10T21:20:33.129Z,12.47
2019-06-10T21:23:03.042Z,12.23
2019-06-10T21:25:32.650Z,11.45
2019-06-10T21:28:03.129Z,11.22
2019-06-10T21:30:40.542Z,12.47
2019-06-10T21:33:03.519Z,10.55
2019-06-10T21:35:33.856Z,11.38
2019-06-10T21:38:03.241Z,12.50
2019-06-10T21:40:33.073Z,12.63
2019-06-10T21:43:02.788Z,12.78
2019-06-10T21:45:32.655Z,12.15
2019-06-10T21:48:02.210Z,12.53
2019-06-10T21:50:33.355Z,12.00
2019-06-10T21:53:02.998Z,12.93
2019-06-10T21:55:33.219Z,13.03
2019-06-10T21:58:03.734Z,12.05
2019-06-10T22:00:51.672Z,12.00
2019-06-10T22:03:04.734Z,12.05
2019-06-10T22:05:33.417Z,12.90
2019-06-10T22:08:03.204Z,11.78
2019-06-10T22:10:33.556Z,11.55
2019-06-10T22:13:03.140Z,11.85
2019-06-10T22:15:33.405Z,12.18
2019-06-10T22:18:02.432Z,11.80
2019-06-10T22:20:32.497Z,13.28
2019-06-10T22:23:02.585Z,12.70
2019-06-10T22:25:32.804Z,7.75
2019-06-10T22:28:02.714Z,5.03
2019-06-10T22:30:32.093Z,4.95
2019-06-10T22:33:03.052Z,5.65
2019-06-10T22:35:31.144Z,4.92
2019-06-10T22:37:59.573Z,5.42
2019-06-10T22:40:28.260Z,5.60
2019-06-10T22:42:56.932Z,5.78
2019-06-10T22:45:25.377Z,4.92
2019-06-10T22:47:55.314Z,5.20
2019-06-10T22:50:24.144Z,5.33
2019-06-10T22:52:55.531Z,6.47
2019-06-10T22:55:22.928Z,5.67
2019-06-10T22:57:54.689Z,5.20
2019-06-10T23:00:22.234Z,5.80
2019-06-10T23:02:53.314Z,5.20
2019-06-10T23:05:23.177Z,5.97
2019-06-10T23:07:53.818Z,6.17
2019-06-10T23:10:22.930Z,5.85
2019-06-10T23:12:54.933Z,6.55
2019-06-10T23:15:23.505Z,6.60
2019-06-10T23:17:55.271Z,7.05
2019-06-10T23:20:22.355Z,6.62
2019-06-10T23:22:55.294Z,5.58
2019-06-10T23:25:22.053Z,6.20
2019-06-10T23:27:53.227Z,6.70
2019-06-10T23:30:22.410Z,6.78
2019-06-10T23:32:54.242Z,7.12
2019-06-10T23:35:23.130Z,6.60
2019-06-10T23:37:55.106Z,7.97
2019-06-10T23:40:23.493Z,7.87
2019-06-10T23:42:53.091Z,8.18
2019-06-10T23:45:22.417Z,8.78
2019-06-10T23:47:53.018Z,8.38
2019-06-10T23:50:22.575Z,8.60
2019-06-10T23:52:53.927Z,8.40
2019-06-10T23:55:22.805Z,7.97
2019-06-10T23:57:52.994Z,7.72
